Time;durP1;ratioP1;P1;durP2;ratioP2;P2;SDS_P1;SDS_P2;PMS_P1;PMS_P2;Temp;Humidity;BMP_temperature;BMP_pressure;BME280_temperature;BME280_humidity;BME280_pressure;Samples;Min_cycle;Max_cycle;Signal;HPM_P1;HPM_P2
2022/08/30 00:03:17;;;;;;;9.90;2.10;;;42.10;42.10;;;;;;5006862;28;20112;-65
2022/08/30 00:05:44;;;;;;;8.07;1.55;;;42.00;42.10;;;;;;5022620;28;20492;-64
2022/08/30 00:08:11;;;;;;;11.43;1.52;;;42.10;42.40;;;;;;5005287;28;20052;-62
2022/08/30 00:10:39;;;;;;;7.20;1.48;;;42.00;42.00;;;;;;5004724;28;20032;-65
2022/08/30 00:13:08;;;;;;;7.80;1.50;;;41.90;41.50;;;;;;5003163;28;20083;-64
2022/08/30 00:15:34;;;;;;;7.25;1.55;;;41.90;41.50;;;;;;5006472;28;20391;-64
2022/08/30 00:18:01;;;;;;;6.60;1.70;;;41.90;42.20;;;;;;5004411;28;20105;-63
2022/08/30 00:20:31;;;;;;;5.50;1.20;;;41.80;41.90;;;;;;5007841;28;20534;-64
2022/08/30 00:22:57;;;;;;;8.20;1.17;;;41.60;42.60;;;;;;5002710;28;20060;-62
2022/08/30 00:25:24;;;;;;;9.85;1.00;;;41.60;42.30;;;;;;4974077;28;20041;-65
2022/08/30 00:27:51;;;;;;;5.93;1.40;;;41.70;41.40;;;;;;4989000;28;20052;-64
2022/08/30 00:30:19;;;;;;;3.60;1.23;;;41.60;40.30;;;;;;4990851;28;20084;-63
2022/08/30 00:32:46;;;;;;;5.53;0.90;;;41.60;40.60;;;;;;4988714;28;20551;-63
2022/08/30 00:35:14;;;;;;;8.57;1.42;;;41.60;40.60;;;;;;4987618;28;20051;-64
2022/08/30 00:37:42;;;;;;;8.48;1.65;;;41.50;40.40;;;;;;4991332;28;20478;-64
2022/08/30 00:40:10;;;;;;;6.32;1.25;;;41.40;40.30;;;;;;4973447;28;20470;-63
2022/08/30 00:42:38;;;;;;;7.13;1.25;;;41.30;40.40;;;;;;4988427;28;20039;-63
2022/08/30 00:45:37;;;;;;;8.60;1.50;;;41.30;40.30;;;;;;4972220;28;20043;-64
2022/08/30 00:48:05;;;;;;;5.63;1.02;;;41.20;40.70;;;;;;4967726;28;20646;-64
2022/08/30 00:50:54;;;;;;;6.53;1.40;;;41.10;40.50;;;;;;4973077;28;20068;-64
2022/08/30 00:53:25;;;;;;;8.27;1.65;;;41.00;40.00;;;;;;4950334;28;20083;-64
2022/08/30 00:55:53;;;;;;;5.50;1.40;;;41.00;40.30;;;;;;4955129;28;20724;-64
2022/08/30 00:58:24;;;;;;;8.85;1.55;;;40.90;39.90;;;;;;4968217;28;20055;-64
2022/08/30 01:00:53;;;;;;;7.93;1.42;;;40.80;39.90;;;;;;4937293;28;20039;-64
2022/08/30 01:03:19;;;;;;;8.48;1.65;;;40.70;39.80;;;;;;4952565;28;20518;-63
2022/08/30 01:05:52;;;;;;;9.25;1.65;;;40.70;40.10;;;;;;4954210;28;20058;-63
2022/08/30 01:08:22;;;;;;;8.85;1.33;;;40.70;40.00;;;;;;4958650;28;20100;-64
2022/08/30 01:10:50;;;;;;;6.65;1.40;;;40.60;40.20;;;;;;4969829;28;20087;-65
2022/08/30 01:13:17;;;;;;;5.90;1.38;;;40.50;39.90;;;;;;4951639;28;20063;-63
2022/08/30 01:15:45;;;;;;;5.43;1.20;;;40.50;40.00;;;;;;4972861;28;20115;-64
2022/08/30 01:18:13;;;;;;;4.43;1.23;;;40.50;40.10;;;;;;4972543;28;20199;-65
2022/08/30 01:21:18;;;;;;;10.15;1.73;;;40.40;39.90;;;;;;4951523;28;20447;-63
2022/08/30 01:23:46;;;;;;;4.95;1.35;;;40.40;40.50;;;;;;4976186;28;20487;-65
2022/08/30 01:26:13;;;;;;;9.55;1.20;;;40.30;40.40;;;;;;4988775;28;20489;-63
2022/08/30 01:28:40;;;;;;;11.00;1.63;;;40.30;40.70;;;;;;4988162;28;20087;-64
2022/08/30 01:31:08;;;;;;;3.90;1.20;;;40.10;40.80;;;;;;4988374;28;20071;-67
2022/08/30 01:33:39;;;;;;;12.23;1.48;;;40.10;41.50;;;;;;4988148;28;20068;-59
2022/08/30 01:36:10;;;;;;;9.25;1.67;;;40.00;41.20;;;;;;5003489;28;20109;-63
2022/08/30 01:38:42;;;;;;;15.32;1.50;;;39.90;41.20;;;;;;4989825;28;20045;-66
2022/08/30 01:41:22;;;;;;;15.90;2.25;;;39.80;42.30;;;;;;4987250;28;20053;-63
2022/08/30 01:43:50;;;;;;;9.63;1.80;;;39.60;42.30;;;;;;4989387;28;20049;-64
2022/08/30 01:46:19;;;;;;;18.13;2.95;;;39.50;42.80;;;;;;4988383;28;20480;-63
2022/08/30 01:48:46;;;;;;;8.00;1.52;;;39.50;42.40;;;;;;4989366;28;20034;-62
2022/08/30 01:51:13;;;;;;;5.47;1.52;;;39.40;42.40;;;;;;4988027;28;20476;-65
2022/08/30 01:53:42;;;;;;;15.18;2.40;;;39.30;42.40;;;;;;4988376;28;20040;-63
2022/08/30 01:56:09;;;;;;;22.30;2.50;;;39.30;42.70;;;;;;4988433;28;20049;-63
2022/08/30 01:58:37;;;;;;;8.57;1.70;;;39.30;42.90;;;;;;4987528;28;20026;-63
2022/08/30 02:01:07;;;;;;;17.38;2.60;;;39.10;43.30;;;;;;4987178;28;20026;-62
2022/08/30 02:03:34;;;;;;;17.08;2.35;;;39.10;43.10;;;;;;4989312;28;20114;-63
2022/08/30 02:06:11;;;;;;;18.05;3.00;;;39.10;43.60;;;;;;4988853;28;20476;-62
2022/08/30 02:08:39;;;;;;;10.10;2.28;;;39.00;43.70;;;;;;4992119;28;20037;-63
2022/08/30 02:11:06;;;;;;;12.80;2.08;;;38.80;43.70;;;;;;4989344;28;20085;-65
2022/08/30 02:13:32;;;;;;;15.98;2.58;;;38.80;44.00;;;;;;4988611;28;20023;-63
2022/08/30 02:15:59;;;;;;;7.43;2.05;;;38.80;44.20;;;;;;4987303;28;20105;-66
2022/08/30 02:18:26;;;;;;;10.60;2.60;;;38.70;44.10;;;;;;4989492;28;20465;-64
2022/08/30 02:20:53;;;;;;;8.25;1.80;;;38.70;44.30;;;;;;4989164;28;20039;-65
2022/08/30 02:23:19;;;;;;;17.00;2.45;;;38.60;44.20;;;;;;5004567;28;20030;-65
2022/08/30 02:25:46;;;;;;;10.48;2.22;;;38.60;44.70;;;;;;5004557;28;20027;-65
2022/08/30 02:28:14;;;;;;;16.42;2.35;;;38.50;45.20;;;;;;5005706;28;20504;-64
2022/08/30 02:30:41;;;;;;;9.55;2.58;;;38.50;45.40;;;;;;4992516;28;20038;-64
2022/08/30 02:33:08;;;;;;;13.80;2.88;;;38.40;45.70;;;;;;4997347;28;20030;-63
2022/08/30 02:35:34;;;;;;;14.98;2.60;;;38.40;45.90;;;;;;4975607;28;20106;-64
2022/08/30 02:38:01;;;;;;;15.45;3.15;;;38.40;45.90;;;;;;4961398;28;20110;-64
2022/08/30 02:40:27;;;;;;;20.92;2.90;;;38.40;46.00;;;;;;4994981;28;20085;-64
2022/08/30 02:42:53;;;;;;;11.25;2.80;;;38.30;46.10;;;;;;4975300;28;20045;-64
2022/08/30 02:45:20;;;;;;;23.40;3.50;;;38.30;46.30;;;;;;4991032;28;20049;-65
2022/08/30 02:47:46;;;;;;;19.10;3.47;;;38.30;46.50;;;;;;4992438;28;20027;-64
2022/08/30 02:50:13;;;;;;;15.73;3.70;;;38.20;46.50;;;;;;4992988;28;20026;-64
2022/08/30 02:52:39;;;;;;;14.15;3.20;;;38.10;46.80;;;;;;4991599;28;20034;-64
2022/08/30 02:55:07;;;;;;;16.58;3.78;;;38.10;46.90;;;;;;4992055;28;20077;-66
2022/08/30 02:57:34;;;;;;;25.55;3.65;;;38.10;46.80;;;;;;4992591;28;20048;-65
2022/08/30 03:00:01;;;;;;;14.52;3.25;;;38.00;46.60;;;;;;4959759;28;20049;-63
2022/08/30 03:02:29;;;;;;;17.75;4.57;;;38.00;46.70;;;;;;4991384;28;20026;-64
2022/08/30 03:04:56;;;;;;;13.73;3.80;;;38.00;46.70;;;;;;4991562;28;20030;-63
2022/08/30 03:07:22;;;;;;;15.02;4.10;;;37.90;46.80;;;;;;4992519;28;20041;-64
2022/08/30 03:09:49;;;;;;;14.85;3.85;;;37.90;47.00;;;;;;4992389;28;20037;-64
2022/08/30 03:12:15;;;;;;;29.88;6.40;;;37.80;46.70;;;;;;4991144;28;20117;-64
2022/08/30 03:14:42;;;;;;;29.73;7.35;;;37.80;46.60;;;;;;4992699;28;20050;-67
2022/08/30 03:17:08;;;;;;;28.45;7.28;;;37.80;46.70;;;;;;4991270;28;20055;-64
2022/08/30 03:19:36;;;;;;;31.27;6.55;;;37.70;46.70;;;;;;5009895;28;20080;-64
2022/08/30 03:22:04;;;;;;;24.08;5.22;;;37.70;46.70;;;;;;5006973;28;20120;-64
2022/08/30 03:24:31;;;;;;;25.08;4.15;;;37.70;46.70;;;;;;4991455;28;20030;-63
2022/08/30 03:26:57;;;;;;;20.42;3.58;;;37.70;46.90;;;;;;4991541;28;20129;-64
2022/08/30 03:29:24;;;;;;;20.95;3.45;;;37.60;47.20;;;;;;5007086;28;20489;-62
2022/08/30 03:31:51;;;;;;;35.88;4.13;;;37.50;47.30;;;;;;4991063;28;20465;-66
2022/08/30 03:34:17;;;;;;;22.13;3.72;;;37.50;47.60;;;;;;5007359;28;20089;-65
2022/08/30 03:36:44;;;;;;;25.83;3.58;;;37.50;47.80;;;;;;4990338;28;20539;-62
2022/08/30 03:39:10;;;;;;;25.05;3.55;;;37.40;47.90;;;;;;4975964;28;20030;-63
2022/08/30 03:41:37;;;;;;;22.45;3.53;;;37.30;48.10;;;;;;4991438;28;20019;-64
2022/08/30 03:44:03;;;;;;;22.80;3.85;;;37.30;48.30;;;;;;5006625;28;20388;-64
2022/08/30 03:46:30;;;;;;;23.35;3.50;;;37.20;48.50;;;;;;5007563;28;20022;-62
2022/08/30 03:48:56;;;;;;;19.50;3.13;;;37.20;48.60;;;;;;4989929;28;20023;-63
2022/08/30 03:51:24;;;;;;;26.42;3.15;;;37.10;48.70;;;;;;4991336;28;20042;-63
2022/08/30 03:53:51;;;;;;;26.70;3.22;;;37.10;48.90;;;;;;4975198;28;20089;-63
2022/08/30 03:56:18;;;;;;;21.15;2.97;;;37.00;48.90;;;;;;4991184;28;20030;-64
2022/08/30 03:58:44;;;;;;;19.83;2.97;;;37.00;49.20;;;;;;4991242;28;20072;-64
2022/08/30 04:01:11;;;;;;;19.02;3.38;;;37.00;49.30;;;;;;5007313;28;20126;-64
2022/08/30 04:03:37;;;;;;;16.65;2.88;;;36.90;49.60;;;;;;4974786;28;20031;-64
2022/08/30 04:06:04;;;;;;;17.13;2.78;;;36.80;49.80;;;;;;4992146;28;20061;-64
2022/08/30 04:08:31;;;;;;;18.60;2.75;;;36.90;50.10;;;;;;4990566;28;20034;-63
2022/08/30 04:10:58;;;;;;;19.08;2.92;;;36.80;50.40;;;;;;4973934;28;20077;-65
2022/08/30 04:13:24;;;;;;;18.42;2.67;;;36.70;50.70;;;;;;5006217;28;20054;-63
2022/08/30 04:15:50;;;;;;;10.88;2.40;;;36.70;50.90;;;;;;4988317;28;20033;-64
2022/08/30 04:18:17;;;;;;;20.52;2.60;;;36.70;51.20;;;;;;4993661;28;20516;-63
2022/08/30 04:20:43;;;;;;;15.57;2.58;;;36.60;51.40;;;;;;4974508;28;20045;-63
2022/08/30 04:23:11;;;;;;;19.10;2.47;;;36.60;51.70;;;;;;5009285;28;20036;-67
2022/08/30 04:25:38;;;;;;;21.52;2.30;;;36.50;51.90;;;;;;4993766;28;20049;-65
2022/08/30 04:28:06;;;;;;;21.15;2.33;;;36.50;52.00;;;;;;4990291;28;20041;-64
2022/08/30 04:30:32;;;;;;;26.65;2.55;;;36.40;52.00;;;;;;4990217;28;20030;-63
2022/08/30 04:32:59;;;;;;;29.85;3.13;;;36.40;52.80;;;;;;4989373;28;20121;-66
2022/08/30 04:35:26;;;;;;;15.45;2.55;;;36.30;52.10;;;;;;4988833;28;20486;-65
2022/08/30 04:37:52;;;;;;;18.33;2.72;;;36.30;52.20;;;;;;4989766;28;20033;-63
2022/08/30 04:40:19;;;;;;;16.20;2.65;;;36.30;52.30;;;;;;4992115;28;20105;-63
2022/08/30 04:42:46;;;;;;;13.05;2.20;;;36.20;52.30;;;;;;4989631;28;20033;-63
2022/08/30 04:45:15;;;;;;;19.65;3.05;;;36.20;52.50;;;;;;4992258;28;20408;-65
2022/08/30 04:47:43;;;;;;;11.55;2.42;;;36.10;52.40;;;;;;5005796;28;20045;-63
2022/08/30 04:50:11;;;;;;;17.63;2.80;;;36.10;52.50;;;;;;4988196;28;20042;-65
2022/08/30 04:52:38;;;;;;;13.77;2.67;;;36.20;52.60;;;;;;4988608;28;20026;-61
2022/08/30 04:55:06;;;;;;;15.68;2.90;;;36.10;52.40;;;;;;5005089;28;20485;-61
2022/08/30 04:57:33;;;;;;;20.48;2.80;;;36.10;52.50;;;;;;4972894;28;20033;-65
2022/08/30 04:59:59;;;;;;;15.73;2.50;;;36.10;52.40;;;;;;5005392;28;20030;-61
2022/08/30 05:02:25;;;;;;;19.35;2.83;;;36.00;52.50;;;;;;5004463;28;20038;-63
2022/08/30 05:07:37;;;;;;;10.20;2.20;;;36.00;52.50;;;;;;4991140;28;20029;-63
2022/08/30 05:10:04;;;;;;;14.63;2.28;;;36.00;52.40;;;;;;4989585;28;20061;-62
2022/08/30 05:12:30;;;;;;;17.23;2.30;;;35.90;52.50;;;;;;4990734;28;20571;-62
2022/08/30 05:14:59;;;;;;;13.13;3.25;;;35.90;53.50;;;;;;4988785;28;20433;-62
2022/08/30 05:17:26;;;;;;;8.82;2.63;;;35.90;52.90;;;;;;4993766;28;20365;-61
2022/08/30 05:19:52;;;;;;;11.82;3.30;;;35.80;52.90;;;;;;4988718;28;20638;-62
2022/08/30 05:22:19;;;;;;;19.92;3.30;;;35.80;53.40;;;;;;4987872;28;20050;-63
2022/08/30 05:24:45;;;;;;;16.45;3.67;;;35.70;53.00;;;;;;5004655;28;20409;-63
2022/08/30 05:27:11;;;;;;;18.10;3.28;;;35.70;53.00;;;;;;4987636;28;20468;-62
2022/08/30 05:29:38;;;;;;;12.82;3.15;;;35.70;53.10;;;;;;4988820;28;20058;-62
2022/08/30 05:32:04;;;;;;;15.13;3.00;;;35.70;53.30;;;;;;4986984;28;20030;-61
2022/08/30 05:34:31;;;;;;;10.05;2.40;;;35.70;53.20;;;;;;4972817;28;20026;-63
2022/08/30 05:36:58;;;;;;;17.85;3.17;;;35.60;53.90;;;;;;4988736;28;20117;-62
2022/08/30 05:39:25;;;;;;;12.65;2.63;;;35.60;53.30;;;;;;4988332;28;20038;-63
2022/08/30 05:41:56;;;;;;;13.23;2.05;;;35.50;53.30;;;;;;5005127;28;20512;-62
2022/08/30 05:44:22;;;;;;;13.85;3.10;;;35.50;53.50;;;;;;5004355;28;21120;-62
2022/08/30 05:46:49;;;;;;;15.43;4.15;;;35.50;53.30;;;;;;4987958;28;20463;-64
2022/08/30 05:49:16;;;;;;;25.45;7.47;;;35.50;53.00;;;;;;5004625;28;20378;-62
2022/08/30 05:51:42;;;;;;;25.02;3.88;;;35.50;53.20;;;;;;4986118;28;20029;-63
2022/08/30 05:54:10;;;;;;;24.30;4.07;;;35.40;52.80;;;;;;4988449;28;20033;-65
2022/08/30 05:56:38;;;;;;;19.17;4.30;;;35.40;52.90;;;;;;4991526;28;20416;-61
2022/08/30 05:59:06;;;;;;;16.23;4.47;;;35.40;52.60;;;;;;4987218;28;20489;-62
2022/08/30 06:01:39;;;;;;;14.98;3.30;;;35.30;52.60;;;;;;5003955;28;20480;-63
2022/08/30 06:04:07;;;;;;;11.90;4.03;;;35.30;52.70;;;;;;4987705;28;20037;-61
2022/08/30 06:06:35;;;;;;;15.07;3.13;;;35.30;52.90;;;;;;4987761;28;20116;-62
2022/08/30 06:09:04;;;;;;;18.88;2.90;;;35.30;52.80;;;;;;4986502;28;20034;-62
2022/08/30 06:11:31;;;;;;;13.50;3.55;;;35.30;52.90;;;;;;4986832;28;20081;-63
2022/08/30 06:13:59;;;;;;;12.48;2.70;;;35.30;53.10;;;;;;4989431;28;20504;-63
2022/08/30 06:16:27;;;;;;;15.60;3.20;;;35.20;54.00;;;;;;4986761;28;20493;-62
2022/08/30 06:18:55;;;;;;;9.93;3.08;;;35.20;53.50;;;;;;4988369;28;20428;-61
2022/08/30 06:21:30;;;;;;;12.43;2.92;;;35.20;53.60;;;;;;5003679;28;20027;-63
2022/08/30 06:23:57;;;;;;;16.95;2.97;;;35.10;53.40;;;;;;4988434;28;20030;-62
2022/08/30 06:26:24;;;;;;;12.68;2.70;;;35.00;53.80;;;;;;4986262;28;20027;-67
2022/08/30 06:28:51;;;;;;;16.63;2.28;;;35.00;54.00;;;;;;4987611;28;20455;-62
2022/08/30 06:31:20;;;;;;;11.25;2.72;;;34.90;53.10;;;;;;4986027;28;20048;-63
2022/08/30 06:33:46;;;;;;;6.82;2.53;;;34.90;53.00;;;;;;4988720;28;20396;-62
2022/08/30 06:36:18;;;;;;;13.32;2.42;;;34.90;53.10;;;;;;4971546;28;20085;-62
2022/08/30 06:38:45;;;;;;;7.78;2.40;;;34.90;52.50;;;;;;4987283;28;20547;-63
2022/08/30 06:41:15;;;;;;;8.77;2.38;;;34.90;52.80;;;;;;4986122;28;20053;-63
2022/08/30 06:43:42;;;;;;;10.55;2.63;;;34.90;52.80;;;;;;4988099;28;20030;-64
2022/08/30 06:46:14;;;;;;;16.38;2.63;;;34.80;52.90;;;;;;4986902;28;20027;-63
2022/08/30 06:48:41;;;;;;;8.32;2.60;;;34.90;53.50;;;;;;4957146;28;20030;-62
2022/08/30 06:51:07;;;;;;;8.60;2.25;;;34.80;54.10;;;;;;4988356;28;20341;-67
2022/08/30 06:53:34;;;;;;;17.55;5.40;;;35.10;54.00;;;;;;4988685;28;20026;-71
2022/08/30 06:56:11;;;;;;;15.88;3.38;;;35.60;53.10;;;;;;4990288;28;20372;-69
2022/08/30 06:58:40;;;;;;;9.65;2.92;;;36.10;52.50;;;;;;4988193;28;20573;-71
2022/08/30 07:01:10;;;;;;;9.35;4.05;;;36.40;51.50;;;;;;4992173;28;20034;-70
2022/08/30 07:03:37;;;;;;;9.35;3.08;;;36.60;51.30;;;;;;5004150;28;20596;-71
2022/08/30 07:06:04;;;;;;;24.33;4.47;;;36.70;50.80;;;;;;5002998;28;20037;-71
2022/08/30 07:08:30;;;;;;;15.73;3.85;;;36.70;50.50;;;;;;4988626;28;20105;-71
2022/08/30 07:10:56;;;;;;;13.95;3.50;;;36.90;51.20;;;;;;5004599;28;20027;-70
2022/08/30 07:13:23;;;;;;;18.23;4.88;;;36.90;50.40;;;;;;4987976;28;20037;-72
2022/08/30 07:15:50;;;;;;;16.58;4.28;;;36.80;50.70;;;;;;4989655;28;20114;-70
2022/08/30 07:21:11;;;;;;;18.98;3.47;;;36.80;50.90;;;;;;4992101;28;20033;-71
2022/08/30 07:23:37;;;;;;;;;;;36.80;50.70;;;;;;4992158;28;20022;-70
2022/08/30 07:26:09;;;;;;;17.05;3.38;;;36.80;50.80;;;;;;4990389;28;19909;-72
2022/08/30 07:28:41;;;;;;;14.07;4.07;;;36.70;50.80;;;;;;4990847;28;20045;-70
2022/08/30 07:31:08;;;;;;;13.57;3.95;;;36.70;50.60;;;;;;4990450;28;20031;-71
2022/08/30 07:33:35;;;;;;;21.75;3.90;;;36.80;51.20;;;;;;4991114;28;20439;-72
2022/08/30 07:36:03;;;;;;;19.60;3.80;;;36.70;50.30;;;;;;4990417;28;20026;-70
2022/08/30 07:38:30;;;;;;;13.52;3.28;;;36.70;50.60;;;;;;4991175;28;20030;-70
2022/08/30 07:40:59;;;;;;;14.90;3.42;;;36.70;50.40;;;;;;5007630;28;20096;-70
2022/08/30 07:43:30;;;;;;;18.52;3.30;;;36.70;50.60;;;;;;4990917;28;20026;-70
2022/08/30 07:46:04;;;;;;;18.13;2.92;;;36.70;50.40;;;;;;4990554;28;20022;-70
2022/08/30 07:48:31;;;;;;;17.23;3.63;;;36.50;50.90;;;;;;4991273;28;20031;-70
2022/08/30 07:50:58;;;;;;;14.52;3.33;;;36.40;50.70;;;;;;4991200;28;20109;-70
2022/08/30 07:53:25;;;;;;;19.35;3.40;;;36.30;50.80;;;;;;5006793;28;20566;-70
2022/08/30 07:55:51;;;;;;;15.75;3.28;;;36.40;50.80;;;;;;4991078;28;20023;-70
2022/08/30 07:58:18;;;;;;;22.45;3.95;;;36.40;51.50;;;;;;4989119;28;20460;-71
2022/08/30 08:00:45;;;;;;;34.03;3.92;;;36.30;51.70;;;;;;4990156;28;20075;-70
2022/08/30 08:03:11;;;;;;;21.08;3.90;;;36.30;51.40;;;;;;4989756;28;20061;-71
2022/08/30 08:05:43;;;;;;;17.70;3.92;;;36.20;51.30;;;;;;4992030;28;20025;-71
2022/08/30 08:08:11;;;;;;;20.50;4.05;;;36.20;51.40;;;;;;5005692;28;20124;-66
2022/08/30 08:10:39;;;;;;;17.75;4.03;;;36.10;51.40;;;;;;4991467;28;20109;-71
2022/08/30 08:13:06;;;;;;;16.65;3.88;;;36.00;51.50;;;;;;4988073;28;20117;-70
2022/08/30 08:15:32;;;;;;;22.08;3.42;;;36.00;51.80;;;;;;4990089;28;20077;-69
2022/08/30 08:17:59;;;;;;;27.13;4.32;;;35.90;52.10;;;;;;4994233;28;20117;-71
2022/08/30 08:20:26;;;;;;;16.58;3.80;;;35.90;52.50;;;;;;4989344;28;20026;-69
2022/08/30 08:22:53;;;;;;;20.63;4.20;;;35.90;52.40;;;;;;5005495;28;20057;-71
2022/08/30 08:25:19;;;;;;;24.38;4.25;;;35.90;53.20;;;;;;4990272;28;20030;-70
2022/08/30 08:27:49;;;;;;;21.17;4.15;;;35.80;52.90;;;;;;5005134;28;20508;-70
2022/08/30 08:30:18;;;;;;;14.65;3.65;;;35.70;53.30;;;;;;4990463;28;20046;-71
2022/08/30 08:32:45;;;;;;;22.85;4.60;;;35.60;53.60;;;;;;4987334;28;20552;-69
2022/08/30 08:35:11;;;;;;;16.35;4.13;;;35.50;54.30;;;;;;4989786;28;20029;-68
2022/08/30 08:37:38;;;;;;;25.40;4.57;;;35.50;54.20;;;;;;4989999;28;20026;-71
2022/08/30 08:40:06;;;;;;;26.85;5.13;;;35.30;53.80;;;;;;4989742;28;20053;-71
2022/08/30 08:42:47;;;;;;;21.10;4.63;;;35.20;54.40;;;;;;4988316;28;20129;-71
2022/08/30 08:45:23;;;;;;;21.52;4.55;;;35.10;54.00;;;;;;4989549;28;20501;-71
2022/08/30 08:48:09;;;;;;;21.97;4.30;;;35.00;54.50;;;;;;4989475;28;20026;-70
2022/08/30 08:50:36;;;;;;;23.58;4.65;;;34.90;54.00;;;;;;4988032;28;20173;-70
2022/08/30 08:55:58;;;;;;;18.77;4.10;;;34.90;55.00;;;;;;4989070;28;20037;-70
2022/08/30 08:58:31;;;;;;;25.40;4.43;;;34.90;55.00;;;;;;4988587;28;20071;-69
2022/08/30 09:00:57;;;;;;;18.88;4.20;;;34.90;54.60;;;;;;5005277;28;20109;-69
2022/08/30 09:03:27;;;;;;;27.80;4.82;;;34.90;54.80;;;;;;4988058;28;20030;-71
2022/08/30 09:05:54;;;;;;;23.20;4.68;;;34.90;54.40;;;;;;4989405;28;20033;-70
2022/08/30 09:08:22;;;;;;;15.60;4.30;;;34.80;55.40;;;;;;4988983;28;20034;-70
2022/08/30 09:11:00;;;;;;;13.05;4.20;;;34.70;55.50;;;;;;5005161;28;20117;-72
2022/08/30 09:13:27;;;;;;;19.35;3.92;;;34.70;55.60;;;;;;4975392;28;20030;-71
2022/08/30 09:15:56;;;;;;;21.20;4.05;;;34.60;55.50;;;;;;4988516;28;20041;-67
2022/08/30 09:18:43;;;;;;;14.32;3.97;;;34.60;55.50;;;;;;4989360;28;20507;-71
2022/08/30 09:21:10;;;;;;;14.75;3.50;;;34.60;54.60;;;;;;4989241;28;20089;-70
2022/08/30 09:23:53;;;;;;;9.90;3.33;;;34.60;55.40;;;;;;4994059;28;20125;-71
2022/08/30 09:26:32;;;;;;;16.52;3.67;;;34.50;55.60;;;;;;5004276;28;20042;-71
2022/08/30 09:28:59;;;;;;;20.90;3.70;;;34.40;55.50;;;;;;4987922;28;20042;-71
2022/08/30 09:31:29;;;;;;;10.80;3.33;;;34.30;55.30;;;;;;5004666;28;20385;-70
2022/08/30 09:34:02;;;;;;;15.73;3.13;;;34.30;55.60;;;;;;4990464;28;20034;-70
2022/08/30 09:36:50;;;;;;;11.90;3.72;;;34.30;55.40;;;;;;4988634;28;20388;-69
2022/08/30 09:39:29;;;;;;;9.82;3.28;;;34.20;55.80;;;;;;4986948;28;20165;-71
2022/08/30 09:42:29;;;;;;;17.30;3.55;;;34.20;55.70;;;;;;5004115;28;20022;-70
2022/08/30 09:45:09;;;;;;;17.02;3.58;;;34.20;55.90;;;;;;4991135;28;20035;-67
2022/08/30 09:47:39;;;;;;;18.65;2.78;;;34.20;56.50;;;;;;4992435;28;20114;-68
2022/08/30 09:50:21;;;;;;;20.45;3.72;;;34.20;55.80;;;;;;4987219;28;20030;-70
2022/08/30 09:52:56;;;;;;;18.45;3.33;;;34.20;56.40;;;;;;4988377;28;20027;-70
2022/08/30 09:55:56;;;;;;;19.48;3.22;;;34.10;56.30;;;;;;4988878;28;20029;-67
2022/08/30 09:58:23;;;;;;;9.77;3.10;;;34.10;56.00;;;;;;4988102;28;20469;-72
2022/08/30 10:01:05;;;;;;;17.17;3.63;;;34.10;56.70;;;;;;4986768;28;20030;-70
2022/08/30 10:03:51;;;;;;;16.65;2.92;;;34.00;56.40;;;;;;4987825;28;20033;-70
2022/08/30 10:06:45;;;;;;;15.70;3.15;;;33.90;56.20;;;;;;4987552;28;20097;-71
2022/08/30 10:09:37;;;;;;;17.13;3.28;;;33.90;56.20;;;;;;4988436;28;20030;-71
2022/08/30 10:12:33;;;;;;;14.60;3.00;;;33.90;56.80;;;;;;4987922;28;20045;-71
2022/08/30 10:15:25;;;;;;;18.55;3.00;;;33.80;57.00;;;;;;4989103;28;20034;-71
2022/08/30 10:18:56;;;;;;;15.57;3.40;;;33.70;56.90;;;;;;4993289;28;20529;-70
2022/08/30 10:21:48;;;;;;;15.98;3.10;;;33.70;56.90;;;;;;4907779;29;20082;-70
2022/08/30 10:24:18;;;;;;;14.07;3.10;;;33.70;56.80;;;;;;4876699;29;20053;-71
2022/08/30 10:27:01;;;;;;;17.80;3.10;;;33.70;56.60;;;;;;4876807;29;20072;-70
2022/08/30 10:29:47;;;;;;;17.02;3.17;;;33.70;56.20;;;;;;4892769;29;20068;-71
2022/08/30 10:32:29;;;;;;;10.95;2.42;;;33.60;56.40;;;;;;4903604;29;20076;-71
2022/08/30 10:35:17;;;;;;;8.38;3.03;;;33.60;56.20;;;;;;4876807;29;20037;-70
2022/08/30 10:38:01;;;;;;;12.73;3.17;;;33.60;56.50;;;;;;4876165;29;20033;-70
2022/08/30 10:43:27;;;;;;;24.33;3.03;;;33.30;56.70;;;;;;4905877;29;20194;-70
2022/08/30 10:45:59;;;;;;;14.32;3.15;;;33.30;57.40;;;;;;4902557;29;20498;-69
2022/08/30 10:48:46;;;;;;;11.52;3.10;;;33.10;58.80;;;;;;4904849;29;20041;-69
2022/08/30 10:51:25;;;;;;;17.92;3.33;;;32.90;58.70;;;;;;4890948;29;20063;-71
2022/08/30 10:54:22;;;;;;;15.70;3.50;;;32.90;58.90;;;;;;4898422;29;20079;-72
2022/08/30 10:56:51;;;;;;;10.85;3.13;;;32.80;59.00;;;;;;4912367;29;20059;-70
2022/08/30 10:59:19;;;;;;;13.57;3.22;;;32.80;59.20;;;;;;5002062;28;20042;-70
2022/08/30 11:02:17;;;;;;;14.85;3.15;;;32.90;59.60;;;;;;5011650;28;20022;-72
2022/08/30 11:05:05;;;;;;;15.43;3.30;;;32.90;59.10;;;;;;5011604;28;20476;-69
2022/08/30 11:07:56;;;;;;;10.65;2.45;;;33.10;58.90;;;;;;4991496;28;20088;-72
2022/08/30 11:11:06;;;;;;;20.83;2.80;;;33.10;59.30;;;;;;4991068;28;20057;-70
2022/08/30 11:13:37;;;;;;;10.73;2.70;;;33.00;59.10;;;;;;4951938;28;20055;-72
2022/08/30 11:16:14;;;;;;;10.30;2.58;;;33.00;59.30;;;;;;4965197;28;20038;-67
2022/08/30 11:18:52;;;;;;;9.93;2.60;;;33.00;59.60;;;;;;4981090;28;20022;-70
2022/08/30 11:21:37;;;;;;;10.23;2.08;;;32.90;59.80;;;;;;4991514;28;20109;-71
2022/08/30 11:24:13;;;;;;;14.43;2.80;;;32.90;60.10;;;;;;4975013;28;20038;-67
2022/08/30 11:26:47;;;;;;;15.45;2.53;;;32.80;60.00;;;;;;4992876;28;20096;-69
2022/08/30 11:29:26;;;;;;;14.25;2.53;;;32.70;59.80;;;;;;5010884;28;20133;-69
2022/08/30 11:31:54;;;;;;;6.85;2.58;;;32.60;59.80;;;;;;5007605;28;21165;-71
2022/08/30 11:34:45;;;;;;;9.27;3.50;;;32.60;60.20;;;;;;4975576;28;20472;-70
2022/08/30 11:37:40;;;;;;;11.85;3.25;;;32.60;60.50;;;;;;4991688;28;20422;-71
2022/08/30 11:40:10;;;;;;;10.90;3.40;;;32.60;59.90;;;;;;5004330;28;20392;-70
2022/08/30 11:42:43;;;;;;;12.95;3.47;;;32.60;60.10;;;;;;4992198;28;20037;-69
2022/08/30 11:45:22;;;;;;;7.93;3.22;;;32.50;60.90;;;;;;5008279;28;20115;-72
2022/08/30 11:47:53;;;;;;;10.02;3.67;;;32.50;61.50;;;;;;5006834;28;20072;-71
2022/08/30 11:50:33;;;;;;;9.10;3.10;;;32.40;61.40;;;;;;4990732;28;20109;-71
2022/08/30 11:53:07;;;;;;;10.85;3.10;;;32.50;61.40;;;;;;4974464;28;20030;-70
2022/08/30 11:55:44;;;;;;;15.32;3.40;;;32.40;61.10;;;;;;5006676;28;20389;-71
2022/08/30 11:58:39;;;;;;;10.15;3.45;;;32.40;61.20;;;;;;4991737;28;20022;-68
2022/08/30 12:01:20;;;;;;;8.43;3.17;;;32.40;60.90;;;;;;4988731;28;20023;-69
2022/08/30 12:04:00;;;;;;;9.07;3.13;;;32.30;61.80;;;;;;4990376;28;20038;-70
2022/08/30 12:06:53;;;;;;;14.52;3.65;;;32.20;62.40;;;;;;4992949;28;20046;-71
2022/08/30 12:09:25;;;;;;;17.33;3.83;;;32.20;62.30;;;;;;5005837;28;20476;-69
2022/08/30 12:11:59;;;;;;;11.90;3.28;;;32.10;62.40;;;;;;4989829;28;20030;-66
2022/08/30 12:14:37;;;;;;;16.65;3.90;;;32.10;62.20;;;;;;4975133;28;20030;-71
2022/08/30 12:20:41;;;;;;;6.90;3.05;;;32.00;62.90;;;;;;4990869;28;20069;-71
2022/08/30 12:23:30;;;;;;;10.52;3.38;;;32.00;63.10;;;;;;4990794;28;20077;-70
2022/08/30 12:26:12;;;;;;;10.45;3.40;;;32.00;63.60;;;;;;5006766;28;20057;-72
2022/08/30 12:28:38;;;;;;;13.93;3.80;;;32.00;63.10;;;;;;4988692;28;20050;-71
2022/08/30 12:31:19;;;;;;;12.77;3.63;;;32.00;63.20;;;;;;4991506;28;20098;-71
2022/08/30 12:33:49;;;;;;;18.67;4.38;;;31.90;63.40;;;;;;4990634;28;20034;-70
2022/08/30 12:36:40;;;;;;;13.02;3.40;;;31.90;63.30;;;;;;4988954;28;20077;-69
2022/08/30 12:39:14;;;;;;;19.67;4.95;;;31.80;63.60;;;;;;4989894;28;20436;-72
2022/08/30 12:41:42;;;;;;;15.50;4.75;;;31.80;63.60;;;;;;4990222;28;20057;-70
2022/08/30 12:44:32;;;;;;;22.52;5.45;;;31.80;63.40;;;;;;4989875;28;20034;-69
2022/08/30 12:47:02;;;;;;;18.70;4.75;;;31.70;63.30;;;;;;4990493;28;20121;-72
2022/08/30 12:49:33;;;;;;;20.83;5.38;;;31.70;63.20;;;;;;4989659;28;20109;-69
2022/08/30 12:52:30;;;;;;;34.35;5.18;;;31.60;63.40;;;;;;4958286;28;20044;-69
2022/08/30 12:55:16;;;;;;;35.67;6.45;;;31.60;63.50;;;;;;4990282;28;20022;-69
2022/08/30 12:57:57;;;;;;;41.92;7.45;;;31.60;64.00;;;;;;4973569;28;20544;-68
2022/08/30 13:00:25;;;;;;;35.13;8.98;;;31.50;63.70;;;;;;4993501;28;20033;-69
2022/08/30 13:02:54;;;;;;;34.38;9.40;;;31.40;63.60;;;;;;4991873;28;20034;-70
2022/08/30 13:05:38;;;;;;;34.70;9.55;;;31.50;64.10;;;;;;4989689;28;20038;-69
2022/08/30 13:08:14;;;;;;;44.67;11.25;;;31.50;64.30;;;;;;5005155;28;20035;-71
2022/08/30 13:11:30;;;;;;;37.53;11.83;;;31.50;64.10;;;;;;4990537;28;20452;-69
2022/08/30 13:14:35;;;;;;;43.65;12.57;;;31.40;64.50;;;;;;4951876;28;20276;-69
2022/08/30 13:17:23;;;;;;;35.22;12.23;;;31.30;64.80;;;;;;4952736;28;20033;-68
2022/08/30 13:20:06;;;;;;;40.72;12.90;;;31.20;64.80;;;;;;4937050;28;20027;-70